createdAt,value
2022-07-30T00:01:20.196Z,2.15
2022-07-30T00:03:46.503Z,1.80
2022-07-30T00:06:12.716Z,2.05
2022-07-30T00:08:38.901Z,2.10
2022-07-30T00:11:05.124Z,2.20
2022-07-30T00:13:31.350Z,1.85
2022-07-30T00:15:57.525Z,2.15
2022-07-30T00:18:23.755Z,2.50
2022-07-30T00:20:49.968Z,1.90
2022-07-30T00:23:16.712Z,2.08
2022-07-30T00:25:42.903Z,2.42
2022-07-30T00:28:09.109Z,2.20
2022-07-30T00:30:35.358Z,2.17
2022-07-30T00:33:01.629Z,2.22
2022-07-30T00:35:27.821Z,4.10
2022-07-30T00:37:54.073Z,1.98
2022-07-30T00:40:20.270Z,1.95
2022-07-30T00:42:46.457Z,2.10
2022-07-30T00:45:12.686Z,2.00
2022-07-30T00:47:38.898Z,2.00
2022-07-30T00:50:05.086Z,2.40
2022-07-30T00:52:31.317Z,2.00
2022-07-30T00:54:57.527Z,2.05
2022-07-30T00:57:23.771Z,2.10
2022-07-30T00:59:51.828Z,2.13
2022-07-30T01:02:18.106Z,1.92
2022-07-30T01:04:44.342Z,2.28
2022-07-30T01:07:10.542Z,2.38
2022-07-30T01:09:36.764Z,2.50
2022-07-30T01:12:02.950Z,2.13
2022-07-30T01:14:29.180Z,2.03
2022-07-30T01:16:55.419Z,2.00
2022-07-30T01:19:21.714Z,1.90
2022-07-30T01:21:47.945Z,2.28
2022-07-30T01:24:14.260Z,2.35
2022-07-30T01:26:40.489Z,2.40
2022-07-30T01:29:06.677Z,1.88
2022-07-30T01:31:32.931Z,2.50
2022-07-30T01:33:59.168Z,2.40
2022-07-30T01:36:25.396Z,2.30
2022-07-30T01:38:51.600Z,2.13
2022-07-30T01:41:17.809Z,2.13
2022-07-30T01:43:44.083Z,2.10
2022-07-30T01:46:10.355Z,2.22
2022-07-30T01:48:36.612Z,2.47
2022-07-30T01:51:02.801Z,1.98
2022-07-30T01:53:29.048Z,1.92
2022-07-30T01:55:55.261Z,2.28
2022-07-30T01:58:21.503Z,2.08
2022-07-30T02:00:47.786Z,2.25
2022-07-30T02:03:14.167Z,2.22
2022-07-30T02:05:40.903Z,2.10
2022-07-30T02:08:08.070Z,2.35
2022-07-30T02:10:34.328Z,1.95
2022-07-30T02:13:00.640Z,2.22
2022-07-30T02:15:26.850Z,2.13
2022-07-30T02:17:53.042Z,2.47
2022-07-30T02:20:19.270Z,2.50
2022-07-30T02:22:51.372Z,2.10
2022-07-30T02:25:17.583Z,2.63
2022-07-30T02:27:43.785Z,2.47
2022-07-30T02:30:10.021Z,2.15
2022-07-30T02:32:36.243Z,2.10
2022-07-30T02:35:02.450Z,2.22
2022-07-30T02:37:43.002Z,2.53
2022-07-30T02:40:10.212Z,2.45
2022-07-30T02:42:36.457Z,2.10
2022-07-30T02:45:02.646Z,2.25
2022-07-30T02:47:28.841Z,2.28
2022-07-30T02:49:55.201Z,2.10
2022-07-30T02:52:21.394Z,1.70
2022-07-30T02:54:47.629Z,2.00
2022-07-30T02:57:13.814Z,2.10
2022-07-30T02:59:40.034Z,2.13
2022-07-30T03:02:06.253Z,2.00
2022-07-30T03:04:32.534Z,2.00
2022-07-30T03:06:59.073Z,2.10
2022-07-30T03:09:25.540Z,1.85
2022-07-30T03:11:51.743Z,2.47
2022-07-30T03:14:17.949Z,2.47
2022-07-30T03:16:44.178Z,1.90
2022-07-30T03:19:10.347Z,2.65
2022-07-30T03:21:36.590Z,2.00
2022-07-30T03:24:02.760Z,2.35
2022-07-30T03:26:28.968Z,2.03
2022-07-30T03:28:55.143Z,2.20
2022-07-30T03:31:21.405Z,2.20
2022-07-30T03:33:47.710Z,2.05
2022-07-30T03:36:13.975Z,2.00
2022-07-30T03:38:40.176Z,2.10
2022-07-30T03:41:06.378Z,2.30
2022-07-30T03:43:34.118Z,2.40
2022-07-30T03:46:00.467Z,2.03
2022-07-30T03:48:26.655Z,2.28
2022-07-30T03:50:52.868Z,2.33
2022-07-30T03:53:19.045Z,2.17
2022-07-30T03:55:45.272Z,2.30
2022-07-30T03:58:11.470Z,2.05
2022-07-30T04:00:37.669Z,2.20
2022-07-30T04:03:03.877Z,2.00
2022-07-30T04:05:37.331Z,2.30
2022-07-30T04:08:07.771Z,2.35
2022-07-30T04:10:34.020Z,2.75
2022-07-30T04:13:00.254Z,2.10
2022-07-30T04:16:37.850Z,2.13
2022-07-30T04:18:12.672Z,2.38
2022-07-30T04:20:38.855Z,2.40
2022-07-30T04:23:05.069Z,2.03
2022-07-30T04:25:31.271Z,2.45
2022-07-30T04:28:03.108Z,2.15
2022-07-30T04:30:30.112Z,2.43
2022-07-30T04:32:56.325Z,2.55
2022-07-30T04:35:23.807Z,2.50
2022-07-30T04:38:08.716Z,2.45
2022-07-30T04:40:34.952Z,2.08
2022-07-30T04:43:01.146Z,2.22
2022-07-30T04:45:27.409Z,2.40
2022-07-30T04:47:53.631Z,2.28
2022-07-30T04:50:22.421Z,2.17
2022-07-30T04:52:48.623Z,2.03
2022-07-30T04:55:14.827Z,2.33
2022-07-30T04:57:41.056Z,2.40
2022-07-30T05:00:07.250Z,2.08
2022-07-30T05:02:33.499Z,1.90
2022-07-30T05:04:59.792Z,2.63
2022-07-30T05:07:26.040Z,2.38
2022-07-30T05:09:52.273Z,2.45
2022-07-30T05:12:18.463Z,2.20
2022-07-30T05:14:48.192Z,2.47
2022-07-30T05:17:14.602Z,2.17
2022-07-30T05:19:40.798Z,2.30
2022-07-30T05:22:07.034Z,2.10
2022-07-30T05:24:33.216Z,2.30
2022-07-30T05:26:59.658Z,2.15
2022-07-30T05:29:25.962Z,2.92
2022-07-30T05:31:52.718Z,2.30
2022-07-30T05:34:19.427Z,1.98
2022-07-30T05:36:45.647Z,2.10
2022-07-30T05:39:11.857Z,2.20
2022-07-30T05:41:38.050Z,2.10
2022-07-30T05:44:04.247Z,1.90
2022-07-30T05:46:30.516Z,2.33
2022-07-30T05:48:56.864Z,2.28
2022-07-30T05:51:23.093Z,2.28
2022-07-30T05:53:49.294Z,2.38
2022-07-30T05:56:15.490Z,2.05
2022-07-30T05:58:41.797Z,2.00
2022-07-30T06:01:07.972Z,2.35
2022-07-30T06:03:34.179Z,2.30
2022-07-30T06:06:00.415Z,2.20
2022-07-30T06:08:26.631Z,2.10
2022-07-30T06:10:52.866Z,1.88
2022-07-30T06:13:19.053Z,2.60
2022-07-30T06:15:45.336Z,2.33
2022-07-30T06:18:11.542Z,2.30
2022-07-30T06:20:37.787Z,2.22
2022-07-30T06:23:04.003Z,1.85
2022-07-30T06:25:30.222Z,1.92
2022-07-30T06:27:56.516Z,1.92
2022-07-30T06:30:31.198Z,1.98
2022-07-30T06:32:57.828Z,2.10
2022-07-30T06:35:24.016Z,2.10
2022-07-30T06:37:54.085Z,2.05
2022-07-30T06:40:32.650Z,2.00
2022-07-30T06:42:58.863Z,1.90
2022-07-30T06:45:25.053Z,2.30
2022-07-30T06:47:51.250Z,1.60
2022-07-30T06:50:17.763Z,2.00
2022-07-30T06:52:43.943Z,2.40
2022-07-30T06:55:10.177Z,1.90
2022-07-30T06:57:40.335Z,1.83
2022-07-30T07:00:08.954Z,2.00
2022-07-30T07:02:35.252Z,1.83
2022-07-30T07:05:01.536Z,1.70
2022-07-30T07:07:41.312Z,1.60
2022-07-30T07:10:08.496Z,1.60
2022-07-30T07:12:34.661Z,1.58
2022-07-30T07:15:00.903Z,1.70
2022-07-30T07:17:27.153Z,1.42
2022-07-30T07:20:01.720Z,1.63
2022-07-30T07:22:28.531Z,1.88
2022-07-30T07:24:54.736Z,1.70
2022-07-30T07:27:20.916Z,1.65
2022-07-30T07:30:01.438Z,1.65
2022-07-30T07:32:31.413Z,1.95
2022-07-30T07:34:57.640Z,1.98
2022-07-30T07:37:23.854Z,2.05
2022-07-30T07:39:50.063Z,1.90
2022-07-30T07:42:16.257Z,1.60
2022-07-30T07:44:42.520Z,1.85
2022-07-30T07:47:08.702Z,1.60
2022-07-30T07:49:34.922Z,1.92
2022-07-30T07:52:01.130Z,1.73
2022-07-30T07:54:27.337Z,1.60
2022-07-30T07:56:53.575Z,2.35
2022-07-30T07:59:19.763Z,1.90
2022-07-30T08:01:45.986Z,1.90
2022-07-30T08:04:12.215Z,2.13
2022-07-30T08:06:38.435Z,1.77
2022-07-30T08:09:04.670Z,1.70
2022-07-30T08:11:30.862Z,1.80
2022-07-30T08:13:57.149Z,1.83
2022-07-30T08:16:23.411Z,1.77
2022-07-30T08:18:49.646Z,1.50
2022-07-30T08:21:15.899Z,1.80
2022-07-30T08:23:42.686Z,1.70
2022-07-30T08:26:09.006Z,2.25
2022-07-30T08:28:36.784Z,2.78
2022-07-30T08:31:03.180Z,1.65
2022-07-30T08:33:29.371Z,1.77
2022-07-30T08:38:46.351Z,1.95
2022-07-30T08:41:12.558Z,1.70
2022-07-30T08:43:38.777Z,1.70
2022-07-30T08:46:04.962Z,1.70
2022-07-30T08:48:31.177Z,1.60
2022-07-30T08:50:57.363Z,1.60
2022-07-30T08:53:23.669Z,1.77
2022-07-30T08:55:49.902Z,1.55
2022-07-30T08:58:16.104Z,1.67
2022-07-30T09:00:44.556Z,2.10
2022-07-30T09:03:10.823Z,2.22
2022-07-30T09:05:37.027Z,1.65
2022-07-30T09:08:07.200Z,1.92
2022-07-30T09:10:34.964Z,1.80
2022-07-30T09:13:01.165Z,1.60
2022-07-30T09:15:27.403Z,2.15
2022-07-30T09:17:53.871Z,1.65
2022-07-30T09:20:20.152Z,1.98
2022-07-30T09:22:46.404Z,1.83
2022-07-30T09:25:12.580Z,1.80
2022-07-30T09:27:38.799Z,1.52
2022-07-30T09:30:04.960Z,1.77
2022-07-30T09:32:31.184Z,1.95
2022-07-30T09:34:57.481Z,2.05
2022-07-30T09:37:23.673Z,1.40
2022-07-30T09:39:56.248Z,2.05
2022-07-30T09:42:25.792Z,1.70
2022-07-30T09:44:52.017Z,1.85
2022-07-30T09:47:18.210Z,2.03
2022-07-30T09:49:47.164Z,1.98
2022-07-30T09:52:13.627Z,1.98
2022-07-30T09:54:39.840Z,2.15
2022-07-30T09:57:25.706Z,1.80
2022-07-30T09:59:53.343Z,2.05
2022-07-30T10:02:19.567Z,1.77
2022-07-30T10:04:46.509Z,1.60
2022-07-30T10:07:13.001Z,1.70
2022-07-30T10:09:51.317Z,2.05
2022-07-30T10:12:18.061Z,1.55
2022-07-30T10:14:44.330Z,1.80
2022-07-30T10:17:12.768Z,2.15
2022-07-30T10:19:39.799Z,1.83
2022-07-30T10:22:06.768Z,1.38
2022-07-30T10:24:33.000Z,2.05
2022-07-30T10:26:59.514Z,2.10
2022-07-30T10:29:33.445Z,1.60
2022-07-30T10:32:00.301Z,1.92
2022-07-30T10:34:29.356Z,1.50
2022-07-30T10:37:00.685Z,1.63
2022-07-30T10:39:34.517Z,1.90
2022-07-30T10:42:01.153Z,1.73
2022-07-30T10:44:27.361Z,1.60
2022-07-30T10:46:54.317Z,1.73
2022-07-30T10:49:22.560Z,1.42
2022-07-30T10:51:48.985Z,1.35
2022-07-30T10:54:15.192Z,1.30
2022-07-30T10:56:41.774Z,1.85
2022-07-30T10:59:08.154Z,1.30
2022-07-30T11:01:34.457Z,1.35
2022-07-30T11:04:02.833Z,1.35
2022-07-30T11:06:29.497Z,1.85
2022-07-30T11:08:57.362Z,1.35
2022-07-30T11:12:00.040Z,1.60
2022-07-30T11:14:10.630Z,1.20
2022-07-30T11:16:37.207Z,1.85
2022-07-30T11:19:27.365Z,1.50
2022-07-30T11:21:49.792Z,1.50
2022-07-30T11:24:16.074Z,1.42
2022-07-30T11:26:48.465Z,1.50
2022-07-30T11:29:14.826Z,1.33
2022-07-30T11:31:58.859Z,1.17
2022-07-30T11:34:27.232Z,1.13
2022-07-30T11:36:53.455Z,1.40
2022-07-30T11:39:19.741Z,1.13
2022-07-30T11:41:50.039Z,1.48
2022-07-30T11:44:16.327Z,1.40
2022-07-30T11:46:42.559Z,1.92
2022-07-30T11:49:09.508Z,1.60
2022-07-30T11:51:35.801Z,1.20
2022-07-30T11:54:02.067Z,1.40
2022-07-30T11:56:28.358Z,1.50
2022-07-30T11:58:54.606Z,1.58
2022-07-30T12:01:20.935Z,1.63
2022-07-30T12:03:47.202Z,1.73
2022-07-30T12:06:13.476Z,1.38
2022-07-30T12:08:39.697Z,1.50
2022-07-30T12:11:05.905Z,1.58
2022-07-30T12:13:44.031Z,1.55
2022-07-30T12:16:11.856Z,1.80
2022-07-30T12:18:38.093Z,1.20
2022-07-30T12:21:04.286Z,1.38
2022-07-30T12:23:30.537Z,1.40
2022-07-30T12:25:56.787Z,1.25
2022-07-30T12:28:24.352Z,1.50
2022-07-30T12:30:50.564Z,1.23
2022-07-30T12:33:16.829Z,1.67
2022-07-30T12:35:43.034Z,1.55
2022-07-30T12:38:09.370Z,1.48
2022-07-30T12:40:35.612Z,1.73
2022-07-30T12:43:01.838Z,1.60
2022-07-30T12:45:28.126Z,1.80
2022-07-30T12:47:54.377Z,1.45
2022-07-30T12:50:20.656Z,1.40
2022-07-30T12:52:47.289Z,1.30
2022-07-30T12:55:13.505Z,1.27
2022-07-30T12:57:39.764Z,1.45
2022-07-30T13:00:06.036Z,1.52
2022-07-30T13:02:32.228Z,1.40
2022-07-30T13:05:11.033Z,1.60
2022-07-30T13:07:38.273Z,1.50
2022-07-30T13:10:04.513Z,2.13
2022-07-30T13:12:30.755Z,1.73
2022-07-30T13:14:57.057Z,1.90
2022-07-30T13:17:23.297Z,1.65
2022-07-30T13:19:49.536Z,1.13
2022-07-30T13:22:15.998Z,1.17
2022-07-30T13:24:42.202Z,1.20
2022-07-30T13:27:08.692Z,7.25
2022-07-30T13:29:35.015Z,11.10
2022-07-30T13:32:01.231Z,3.47
2022-07-30T13:34:27.450Z,8.32
2022-07-30T13:36:53.648Z,1.70
2022-07-30T13:39:20.078Z,1.30
2022-07-30T13:41:46.327Z,1.70
2022-07-30T13:44:12.544Z,1.92
2022-07-30T13:46:41.164Z,1.70
2022-07-30T13:49:07.707Z,1.42
2022-07-30T13:51:33.980Z,7.28
2022-07-30T13:54:00.217Z,1.83
2022-07-30T13:56:26.451Z,1.35
2022-07-30T13:58:52.722Z,1.40
2022-07-30T14:01:19.125Z,1.30
2022-07-30T14:03:49.396Z,1.17
2022-07-30T14:06:16.718Z,1.35
2022-07-30T14:08:43.003Z,1.50
2022-07-30T14:11:09.228Z,1.80
2022-07-30T14:13:35.488Z,1.38
2022-07-30T14:16:01.653Z,1.48
2022-07-30T14:18:27.894Z,1.40
2022-07-30T14:20:54.109Z,1.60
2022-07-30T14:23:20.399Z,1.27
2022-07-30T14:25:46.580Z,1.35
2022-07-30T14:28:12.816Z,1.35
2022-07-30T14:30:39.051Z,1.48
2022-07-30T14:33:05.263Z,1.40
2022-07-30T14:35:31.518Z,1.77
2022-07-30T14:37:57.737Z,1.70
2022-07-30T14:40:23.982Z,1.60
2022-07-30T14:42:50.232Z,1.50
2022-07-30T14:45:16.474Z,1.27
2022-07-30T14:47:42.674Z,1.35
2022-07-30T14:50:08.929Z,1.40
2022-07-30T14:52:35.205Z,1.45
2022-07-30T14:55:01.417Z,1.88
2022-07-30T14:57:30.240Z,1.30
2022-07-30T14:59:56.528Z,1.45
2022-07-30T15:02:22.775Z,1.75
2022-07-30T15:04:48.998Z,1.27
2022-07-30T15:07:15.232Z,1.40
2022-07-30T15:09:41.479Z,1.20
2022-07-30T15:12:09.668Z,1.40
2022-07-30T15:14:36.263Z,1.27
2022-07-30T15:17:04.488Z,1.38
2022-07-30T15:19:30.873Z,1.20
2022-07-30T15:21:57.122Z,1.50
2022-07-30T15:24:26.221Z,1.35
2022-07-30T15:26:53.281Z,1.50
2022-07-30T15:29:19.506Z,1.30
2022-07-30T15:31:45.813Z,1.30
2022-07-30T15:34:12.062Z,1.42
2022-07-30T15:36:38.274Z,1.23
2022-07-30T15:39:04.521Z,1.27
2022-07-30T15:41:30.779Z,1.45
2022-07-30T15:43:56.979Z,1.08
2022-07-30T15:46:23.182Z,1.20
2022-07-30T15:48:49.481Z,1.52
2022-07-30T15:51:15.819Z,1.10
2022-07-30T15:53:42.051Z,1.40
2022-07-30T15:56:08.331Z,1.10
2022-07-30T15:58:34.603Z,1.38
2022-07-30T16:01:00.879Z,1.92
2022-07-30T16:03:27.343Z,1.02
2022-07-30T16:05:53.617Z,1.33
2022-07-30T16:08:19.878Z,2.28
2022-07-30T16:10:46.089Z,1.48
2022-07-30T16:13:12.313Z,1.50
2022-07-30T16:15:38.573Z,1.42
2022-07-30T16:18:04.841Z,1.42
2022-07-30T16:20:31.106Z,3.10
2022-07-30T16:22:57.342Z,1.85
2022-07-30T16:25:23.603Z,1.63
2022-07-30T16:27:49.786Z,1.30
2022-07-30T16:30:16.022Z,1.48
2022-07-30T16:32:42.222Z,1.33
2022-07-30T16:35:12.795Z,1.67
2022-07-30T16:37:39.511Z,1.60
2022-07-30T16:40:05.772Z,1.67
2022-07-30T16:42:32.038Z,1.88
2022-07-30T16:44:58.326Z,1.65
2022-07-30T16:47:24.594Z,1.55
2022-07-30T16:49:50.798Z,1.77
2022-07-30T16:52:17.037Z,1.25
2022-07-30T16:54:43.254Z,1.80
2022-07-30T16:57:10.679Z,1.88
2022-07-30T16:59:37.116Z,1.70
2022-07-30T17:02:03.606Z,1.30
2022-07-30T17:04:29.970Z,1.20
2022-07-30T17:06:56.194Z,1.58
2022-07-30T17:09:22.462Z,2.00
2022-07-30T17:11:52.385Z,2.53
2022-07-30T17:14:18.846Z,1.52
2022-07-30T17:16:45.083Z,1.77
2022-07-30T17:19:11.314Z,1.90
2022-07-30T17:21:37.534Z,1.35
2022-07-30T17:24:03.817Z,1.88
2022-07-30T17:26:30.183Z,1.60
2022-07-30T17:28:56.403Z,1.58
2022-07-30T17:31:22.750Z,1.70
2022-07-30T17:33:48.985Z,2.05
2022-07-30T17:36:15.226Z,2.30
2022-07-30T17:38:41.489Z,2.92
2022-07-30T17:41:11.753Z,1.92
2022-07-30T17:43:39.555Z,2.00
2022-07-30T17:46:05.808Z,1.65
2022-07-30T17:48:31.990Z,1.20
2022-07-30T17:50:58.268Z,1.73
2022-07-30T17:53:28.237Z,5.03
2022-07-30T17:55:57.413Z,4.53
2022-07-30T17:58:24.202Z,4.10
2022-07-30T18:00:50.546Z,9.80
2022-07-30T18:03:16.829Z,18.27
2022-07-30T18:05:43.028Z,14.65
2022-07-30T18:08:09.304Z,13.35
2022-07-30T18:10:35.559Z,9.07
2022-07-30T18:13:26.874Z,10.00
2022-07-30T18:15:47.993Z,7.97
2022-07-30T18:18:14.217Z,4.90
2022-07-30T18:20:47.960Z,4.32
2022-07-30T18:23:14.474Z,3.38
2022-07-30T18:25:53.104Z,3.28
2022-07-30T18:28:20.749Z,2.72
2022-07-30T18:30:46.964Z,2.80
2022-07-30T18:33:13.275Z,2.42
2022-07-30T18:35:39.492Z,1.80
2022-07-30T18:38:05.757Z,2.10
2022-07-30T18:40:31.986Z,2.58
2022-07-30T18:42:58.269Z,2.35
2022-07-30T18:45:24.518Z,2.35
2022-07-30T18:47:50.747Z,2.38
2022-07-30T18:50:16.989Z,2.35
2022-07-30T18:52:43.205Z,2.30
2022-07-30T18:55:09.442Z,2.35
2022-07-30T18:57:35.661Z,2.70
2022-07-30T19:00:01.900Z,2.35
2022-07-30T19:02:28.098Z,2.20
2022-07-30T19:04:54.293Z,2.28
2022-07-30T19:07:20.528Z,2.20
2022-07-30T19:09:46.707Z,2.10
2022-07-30T19:12:12.951Z,2.30
2022-07-30T19:14:39.156Z,2.25
2022-07-30T19:17:14.074Z,2.40
2022-07-30T19:19:41.580Z,2.30
2022-07-30T19:22:07.836Z,2.65
2022-07-30T19:24:34.040Z,2.90
2022-07-30T19:27:00.232Z,2.30
2022-07-30T19:29:26.504Z,2.10
2022-07-30T19:31:52.690Z,1.95
2022-07-30T19:34:18.899Z,2.40
2022-07-30T19:36:45.129Z,2.05
2022-07-30T19:39:15.898Z,2.40
2022-07-30T19:41:47.644Z,1.92
2022-07-30T19:44:18.665Z,2.50
2022-07-30T19:46:45.127Z,2.00
2022-07-30T19:49:11.392Z,2.00
2022-07-30T19:52:09.992Z,2.22
2022-07-30T19:54:23.800Z,2.15
2022-07-30T19:56:50.107Z,2.47
2022-07-30T19:59:16.350Z,2.10
2022-07-30T20:01:42.844Z,2.60
2022-07-30T20:04:09.050Z,2.20
2022-07-30T20:06:35.797Z,2.50
2022-07-30T20:09:04.606Z,2.30
2022-07-30T20:11:35.983Z,2.47
2022-07-30T20:14:02.639Z,2.17
2022-07-30T20:16:28.859Z,2.38
2022-07-30T20:18:55.223Z,2.72
2022-07-30T20:21:21.465Z,2.90
2022-07-30T20:24:07.641Z,2.88
2022-07-30T20:26:33.849Z,3.35
2022-07-30T20:29:00.916Z,3.20
2022-07-30T20:31:27.114Z,3.10
2022-07-30T20:33:54.064Z,2.70
2022-07-30T20:36:20.311Z,3.13
2022-07-30T20:38:46.526Z,2.97
2022-07-30T20:41:12.749Z,2.80
2022-07-30T20:43:52.212Z,3.00
2022-07-30T20:46:21.094Z,2.47
2022-07-30T20:48:49.844Z,6.03
2022-07-30T20:51:16.147Z,2.53
2022-07-30T20:53:45.402Z,2.78
2022-07-30T20:56:11.837Z,2.60
2022-07-30T20:58:39.847Z,2.70
2022-07-30T21:01:07.085Z,2.03
2022-07-30T21:03:33.658Z,2.40
2022-07-30T21:05:59.940Z,2.50
2022-07-30T21:08:26.170Z,2.30
2022-07-30T21:10:52.518Z,2.17
2022-07-30T21:13:18.727Z,2.35
2022-07-30T21:15:45.292Z,2.40
2022-07-30T21:18:12.047Z,2.15
2022-07-30T21:20:38.291Z,2.15
2022-07-30T21:23:04.691Z,2.05
2022-07-30T21:25:32.447Z,2.30
2022-07-30T21:27:59.829Z,2.88
2022-07-30T21:30:26.057Z,2.40
2022-07-30T21:32:52.940Z,2.60
2022-07-30T21:35:19.517Z,2.22
2022-07-30T21:37:46.005Z,2.75
2022-07-30T21:40:12.200Z,2.28
2022-07-30T21:42:48.353Z,2.40
2022-07-30T21:45:15.183Z,2.30
2022-07-30T21:47:41.862Z,2.72
2022-07-30T21:50:14.327Z,2.40
2022-07-30T21:52:42.395Z,2.40
2022-07-30T21:55:08.605Z,2.90
2022-07-30T21:57:39.614Z,3.03
2022-07-30T22:00:05.819Z,3.10
2022-07-30T22:02:35.289Z,3.10
2022-07-30T22:05:02.596Z,2.92
2022-07-30T22:07:28.943Z,4.03
2022-07-30T22:09:55.140Z,3.00
2022-07-30T22:12:21.400Z,3.20
2022-07-30T22:14:52.075Z,3.22
2022-07-30T22:17:23.780Z,3.05
2022-07-30T22:20:03.209Z,3.25
2022-07-30T22:22:35.532Z,3.50
2022-07-30T22:25:02.353Z,4.32
2022-07-30T22:27:40.040Z,4.07
2022-07-30T22:30:19.261Z,3.47
2022-07-30T22:32:46.500Z,4.43
2022-07-30T22:35:16.278Z,3.58
2022-07-30T22:37:42.646Z,3.67
2022-07-30T22:40:12.170Z,3.60
2022-07-30T22:42:46.812Z,4.05
2022-07-30T22:45:16.385Z,3.70
2022-07-30T22:48:06.394Z,4.47
2022-07-30T22:50:36.945Z,3.60
2022-07-30T22:53:56.863Z,4.28
2022-07-30T22:55:52.658Z,3.35
2022-07-30T22:58:22.035Z,3.70
2022-07-30T23:00:52.434Z,3.60
2022-07-30T23:03:18.619Z,3.47
2022-07-30T23:05:55.166Z,3.17
2022-07-30T23:08:29.872Z,3.60
2022-07-30T23:10:57.006Z,3.35
2022-07-30T23:13:23.199Z,3.80
2022-07-30T23:15:49.435Z,3.70
2022-07-30T23:18:15.649Z,4.07
2022-07-30T23:20:41.850Z,3.90
2022-07-30T23:23:08.104Z,4.00
2022-07-30T23:25:34.509Z,3.83
2022-07-30T23:28:05.360Z,3.15
2022-07-30T23:30:34.031Z,3.60
2022-07-30T23:33:00.565Z,3.28
2022-07-30T23:35:26.802Z,3.50
2022-07-30T23:37:53.002Z,2.90
2022-07-30T23:40:19.293Z,2.85
2022-07-30T23:42:45.482Z,3.05
2022-07-30T23:45:11.695Z,2.90
2022-07-30T23:48:00.602Z,3.20
2022-07-30T23:50:24.061Z,3.22
2022-07-30T23:52:50.286Z,3.05
2022-07-30T23:55:16.476Z,3.15
2022-07-30T23:57:42.672Z,2.90
